sensor_id;sensor_type;location;lat;lon;timestamp;P1;durP1;ratioP1;P2;durP2;ratioP2
5042;SDS011;2540;50.928;6.856;2022-07-06T00:01:09;2.73;;;1.47;;
5042;SDS011;2540;50.928;6.856;2022-07-06T00:03:34;1.37;;;1.20;;
5042;SDS011;2540;50.928;6.856;2022-07-06T00:05:59;2.60;;;1.67;;
5042;SDS011;2540;50.928;6.856;2022-07-06T00:08:25;1.60;;;1.50;;
5042;SDS011;2540;50.928;6.856;2022-07-06T00:10:50;6.47;;;1.67;;
5042;SDS011;2540;50.928;6.856;2022-07-06T00:13:15;3.60;;;1.67;;
5042;SDS011;2540;50.928;6.856;2022-07-06T00:15:40;7.63;;;1.30;;
5042;SDS011;2540;50.928;6.856;2022-07-06T00:18:06;2.20;;;1.53;;
5042;SDS011;2540;50.928;6.856;2022-07-06T00:20:31;3.60;;;1.67;;
5042;SDS011;2540;50.928;6.856;2022-07-06T00:22:56;2.43;;;1.40;;
5042;SDS011;2540;50.928;6.856;2022-07-06T00:25:21;3.73;;;1.40;;
5042;SDS011;2540;50.928;6.856;2022-07-06T00:27:47;2.07;;;1.50;;
5042;SDS011;2540;50.928;6.856;2022-07-06T00:30:12;7.67;;;1.80;;
5042;SDS011;2540;50.928;6.856;2022-07-06T00:32:37;3.47;;;1.33;;
5042;SDS011;2540;50.928;6.856;2022-07-06T00:35:02;3.23;;;1.50;;
5042;SDS011;2540;50.928;6.856;2022-07-06T00:37:28;5.17;;;1.53;;
5042;SDS011;2540;50.928;6.856;2022-07-06T00:39:53;3.60;;;1.43;;
5042;SDS011;2540;50.928;6.856;2022-07-06T00:42:18;2.20;;;1.57;;
5042;SDS011;2540;50.928;6.856;2022-07-06T00:44:43;3.70;;;1.00;;
5042;SDS011;2540;50.928;6.856;2022-07-06T00:47:09;4.63;;;1.83;;
5042;SDS011;2540;50.928;6.856;2022-07-06T00:49:34;11.13;;;2.10;;
5042;SDS011;2540;50.928;6.856;2022-07-06T00:52:18;7.87;;;1.80;;
5042;SDS011;2540;50.928;6.856;2022-07-06T00:54:43;1.73;;;1.57;;
5042;SDS011;2540;50.928;6.856;2022-07-06T00:57:09;3.57;;;1.90;;
5042;SDS011;2540;50.928;6.856;2022-07-06T00:59:34;1.77;;;1.40;;
5042;SDS011;2540;50.928;6.856;2022-07-06T01:02:00;2.77;;;1.67;;
5042;SDS011;2540;50.928;6.856;2022-07-06T01:04:25;2.73;;;1.50;;
5042;SDS011;2540;50.928;6.856;2022-07-06T01:06:50;3.50;;;1.50;;
5042;SDS011;2540;50.928;6.856;2022-07-06T01:09:16;4.50;;;2.20;;
5042;SDS011;2540;50.928;6.856;2022-07-06T01:11:41;3.33;;;1.60;;
5042;SDS011;2540;50.928;6.856;2022-07-06T01:14:07;1.70;;;1.60;;
5042;SDS011;2540;50.928;6.856;2022-07-06T01:16:32;4.10;;;1.83;;
5042;SDS011;2540;50.928;6.856;2022-07-06T01:18:58;5.60;;;2.70;;
5042;SDS011;2540;50.928;6.856;2022-07-06T01:21:23;6.47;;;1.57;;
5042;SDS011;2540;50.928;6.856;2022-07-06T01:23:48;3.50;;;1.63;;
5042;SDS011;2540;50.928;6.856;2022-07-06T01:26:17;1.93;;;1.73;;
5042;SDS011;2540;50.928;6.856;2022-07-06T01:28:44;2.90;;;1.70;;
5042;SDS011;2540;50.928;6.856;2022-07-06T01:31:16;5.93;;;2.70;;
5042;SDS011;2540;50.928;6.856;2022-07-06T01:33:42;2.53;;;1.77;;
5042;SDS011;2540;50.928;6.856;2022-07-06T01:36:08;3.37;;;1.93;;
5042;SDS011;2540;50.928;6.856;2022-07-06T01:38:42;2.80;;;1.60;;
5042;SDS011;2540;50.928;6.856;2022-07-06T01:41:07;1.50;;;1.20;;
5042;SDS011;2540;50.928;6.856;2022-07-06T01:43:33;3.17;;;2.00;;
5042;SDS011;2540;50.928;6.856;2022-07-06T01:45:58;3.60;;;1.63;;
5042;SDS011;2540;50.928;6.856;2022-07-06T01:48:23;1.63;;;1.53;;
5042;SDS011;2540;50.928;6.856;2022-07-06T01:50:48;1.70;;;1.60;;
5042;SDS011;2540;50.928;6.856;2022-07-06T01:53:13;4.43;;;1.70;;
5042;SDS011;2540;50.928;6.856;2022-07-06T01:55:39;5.83;;;2.10;;
5042;SDS011;2540;50.928;6.856;2022-07-06T01:58:04;3.50;;;1.77;;
5042;SDS011;2540;50.928;6.856;2022-07-06T02:00:29;12.03;;;1.90;;
5042;SDS011;2540;50.928;6.856;2022-07-06T02:02:54;2.23;;;1.40;;
5042;SDS011;2540;50.928;6.856;2022-07-06T02:05:19;4.73;;;1.73;;
5042;SDS011;2540;50.928;6.856;2022-07-06T02:07:45;1.70;;;1.60;;
5042;SDS011;2540;50.928;6.856;2022-07-06T02:10:10;2.70;;;1.93;;
5042;SDS011;2540;50.928;6.856;2022-07-06T02:12:35;3.37;;;1.50;;
5042;SDS011;2540;50.928;6.856;2022-07-06T02:15:00;3.97;;;1.77;;
5042;SDS011;2540;50.928;6.856;2022-07-06T02:17:26;2.83;;;2.50;;
5042;SDS011;2540;50.928;6.856;2022-07-06T02:19:51;2.90;;;1.80;;
5042;SDS011;2540;50.928;6.856;2022-07-06T02:22:16;1.93;;;1.60;;
5042;SDS011;2540;50.928;6.856;2022-07-06T02:24:41;4.20;;;1.60;;
5042;SDS011;2540;50.928;6.856;2022-07-06T02:27:06;3.50;;;1.60;;
5042;SDS011;2540;50.928;6.856;2022-07-06T02:29:32;6.53;;;1.97;;
5042;SDS011;2540;50.928;6.856;2022-07-06T02:31:57;2.40;;;1.30;;
5042;SDS011;2540;50.928;6.856;2022-07-06T02:34:22;2.70;;;1.90;;
5042;SDS011;2540;50.928;6.856;2022-07-06T02:36:47;6.63;;;2.20;;
5042;SDS011;2540;50.928;6.856;2022-07-06T02:39:13;3.33;;;1.60;;
5042;SDS011;2540;50.928;6.856;2022-07-06T02:41:38;2.13;;;1.83;;
5042;SDS011;2540;50.928;6.856;2022-07-06T02:44:03;5.27;;;2.00;;
5042;SDS011;2540;50.928;6.856;2022-07-06T02:46:28;2.87;;;2.07;;
5042;SDS011;2540;50.928;6.856;2022-07-06T02:48:54;3.30;;;1.70;;
5042;SDS011;2540;50.928;6.856;2022-07-06T02:51:19;2.97;;;1.70;;
5042;SDS011;2540;50.928;6.856;2022-07-06T02:53:44;3.53;;;1.87;;
5042;SDS011;2540;50.928;6.856;2022-07-06T02:56:09;3.43;;;1.60;;
5042;SDS011;2540;50.928;6.856;2022-07-06T02:58:34;3.80;;;1.60;;
5042;SDS011;2540;50.928;6.856;2022-07-06T03:01:00;3.07;;;1.60;;
5042;SDS011;2540;50.928;6.856;2022-07-06T03:03:25;3.60;;;1.67;;
5042;SDS011;2540;50.928;6.856;2022-07-06T03:05:50;7.03;;;2.10;;
5042;SDS011;2540;50.928;6.856;2022-07-06T03:08:15;4.90;;;2.10;;
5042;SDS011;2540;50.928;6.856;2022-07-06T03:10:40;2.37;;;2.17;;
5042;SDS011;2540;50.928;6.856;2022-07-06T03:13:06;2.10;;;1.70;;
5042;SDS011;2540;50.928;6.856;2022-07-06T03:15:31;2.60;;;1.70;;
5042;SDS011;2540;50.928;6.856;2022-07-06T03:17:56;7.20;;;1.73;;
5042;SDS011;2540;50.928;6.856;2022-07-06T03:20:21;4.23;;;1.70;;
5042;SDS011;2540;50.928;6.856;2022-07-06T03:22:47;2.30;;;1.60;;
5042;SDS011;2540;50.928;6.856;2022-07-06T03:25:12;4.90;;;2.20;;
5042;SDS011;2540;50.928;6.856;2022-07-06T03:27:37;3.50;;;1.90;;
5042;SDS011;2540;50.928;6.856;2022-07-06T03:30:02;7.30;;;2.17;;
5042;SDS011;2540;50.928;6.856;2022-07-06T03:32:28;4.20;;;1.80;;
5042;SDS011;2540;50.928;6.856;2022-07-06T03:34:54;1.67;;;1.23;;
5042;SDS011;2540;50.928;6.856;2022-07-06T03:37:19;2.67;;;2.27;;
5042;SDS011;2540;50.928;6.856;2022-07-06T03:39:44;4.80;;;2.10;;
5042;SDS011;2540;50.928;6.856;2022-07-06T03:42:09;2.53;;;1.63;;
5042;SDS011;2540;50.928;6.856;2022-07-06T03:44:35;6.10;;;2.53;;
5042;SDS011;2540;50.928;6.856;2022-07-06T03:47:00;4.20;;;1.63;;
5042;SDS011;2540;50.928;6.856;2022-07-06T03:49:25;3.23;;;1.90;;
5042;SDS011;2540;50.928;6.856;2022-07-06T03:51:52;2.67;;;1.77;;
5042;SDS011;2540;50.928;6.856;2022-07-06T03:54:17;5.37;;;1.87;;
5042;SDS011;2540;50.928;6.856;2022-07-06T03:56:43;3.13;;;2.13;;
5042;SDS011;2540;50.928;6.856;2022-07-06T03:59:08;3.93;;;2.00;;
5042;SDS011;2540;50.928;6.856;2022-07-06T04:01:33;3.70;;;1.90;;
5042;SDS011;2540;50.928;6.856;2022-07-06T04:03:58;3.07;;;1.50;;
5042;SDS011;2540;50.928;6.856;2022-07-06T04:06:24;3.77;;;2.40;;
5042;SDS011;2540;50.928;6.856;2022-07-06T04:08:49;9.60;;;3.70;;
5042;SDS011;2540;50.928;6.856;2022-07-06T04:11:15;2.33;;;1.67;;
5042;SDS011;2540;50.928;6.856;2022-07-06T04:13:40;6.37;;;1.83;;
5042;SDS011;2540;50.928;6.856;2022-07-06T04:16:06;4.33;;;2.20;;
5042;SDS011;2540;50.928;6.856;2022-07-06T04:18:31;15.33;;;3.17;;
5042;SDS011;2540;50.928;6.856;2022-07-06T04:20:56;9.93;;;2.10;;
5042;SDS011;2540;50.928;6.856;2022-07-06T04:23:24;2.20;;;1.80;;
5042;SDS011;2540;50.928;6.856;2022-07-06T04:25:49;3.37;;;1.80;;
5042;SDS011;2540;50.928;6.856;2022-07-06T04:28:15;6.03;;;2.33;;
5042;SDS011;2540;50.928;6.856;2022-07-06T04:30:40;3.10;;;1.80;;
5042;SDS011;2540;50.928;6.856;2022-07-06T04:33:05;4.10;;;1.93;;
5042;SDS011;2540;50.928;6.856;2022-07-06T04:35:30;3.30;;;2.20;;
5042;SDS011;2540;50.928;6.856;2022-07-06T04:37:56;10.10;;;1.97;;
5042;SDS011;2540;50.928;6.856;2022-07-06T04:40:21;6.93;;;2.70;;
5042;SDS011;2540;50.928;6.856;2022-07-06T04:42:46;4.03;;;1.97;;
5042;SDS011;2540;50.928;6.856;2022-07-06T04:45:12;5.00;;;2.57;;
5042;SDS011;2540;50.928;6.856;2022-07-06T04:47:37;2.13;;;1.80;;
5042;SDS011;2540;50.928;6.856;2022-07-06T04:50:03;2.37;;;2.17;;
5042;SDS011;2540;50.928;6.856;2022-07-06T04:52:28;2.73;;;2.20;;
5042;SDS011;2540;50.928;6.856;2022-07-06T04:54:56;4.50;;;2.00;;
5042;SDS011;2540;50.928;6.856;2022-07-06T04:57:21;3.03;;;2.30;;
5042;SDS011;2540;50.928;6.856;2022-07-06T04:59:47;7.27;;;2.53;;
5042;SDS011;2540;50.928;6.856;2022-07-06T05:02:12;3.43;;;2.20;;
5042;SDS011;2540;50.928;6.856;2022-07-06T05:04:37;5.67;;;2.40;;
5042;SDS011;2540;50.928;6.856;2022-07-06T05:07:02;3.53;;;2.57;;
5042;SDS011;2540;50.928;6.856;2022-07-06T05:09:27;3.97;;;1.93;;
5042;SDS011;2540;50.928;6.856;2022-07-06T05:11:53;5.10;;;2.67;;
5042;SDS011;2540;50.928;6.856;2022-07-06T05:14:18;2.50;;;2.10;;
5042;SDS011;2540;50.928;6.856;2022-07-06T05:16:43;7.33;;;2.33;;
5042;SDS011;2540;50.928;6.856;2022-07-06T05:19:08;4.07;;;2.40;;
5042;SDS011;2540;50.928;6.856;2022-07-06T05:21:34;3.50;;;2.63;;
5042;SDS011;2540;50.928;6.856;2022-07-06T05:23:59;7.77;;;2.20;;
5042;SDS011;2540;50.928;6.856;2022-07-06T05:26:24;4.10;;;2.03;;
5042;SDS011;2540;50.928;6.856;2022-07-06T05:28:49;4.20;;;2.27;;
5042;SDS011;2540;50.928;6.856;2022-07-06T05:31:14;3.40;;;2.00;;
5042;SDS011;2540;50.928;6.856;2022-07-06T05:33:40;6.10;;;2.17;;
5042;SDS011;2540;50.928;6.856;2022-07-06T05:36:05;4.43;;;2.10;;
5042;SDS011;2540;50.928;6.856;2022-07-06T05:38:30;8.43;;;2.40;;
5042;SDS011;2540;50.928;6.856;2022-07-06T05:40:55;3.10;;;2.23;;
5042;SDS011;2540;50.928;6.856;2022-07-06T05:43:21;5.07;;;2.80;;
5042;SDS011;2540;50.928;6.856;2022-07-06T05:45:46;2.83;;;2.30;;
5042;SDS011;2540;50.928;6.856;2022-07-06T05:48:11;4.40;;;2.10;;
5042;SDS011;2540;50.928;6.856;2022-07-06T05:50:55;5.13;;;1.97;;
5042;SDS011;2540;50.928;6.856;2022-07-06T05:53:20;5.47;;;1.70;;
5042;SDS011;2540;50.928;6.856;2022-07-06T05:55:46;3.77;;;1.67;;
5042;SDS011;2540;50.928;6.856;2022-07-06T05:58:11;5.60;;;1.60;;
5042;SDS011;2540;50.928;6.856;2022-07-06T06:00:36;6.70;;;1.77;;
5042;SDS011;2540;50.928;6.856;2022-07-06T06:03:01;9.90;;;1.80;;
5042;SDS011;2540;50.928;6.856;2022-07-06T06:05:26;2.60;;;1.53;;
5042;SDS011;2540;50.928;6.856;2022-07-06T06:07:52;5.07;;;2.83;;
5042;SDS011;2540;50.928;6.856;2022-07-06T06:10:18;7.43;;;2.17;;
5042;SDS011;2540;50.928;6.856;2022-07-06T06:12:43;5.47;;;2.20;;
5042;SDS011;2540;50.928;6.856;2022-07-06T06:15:09;5.07;;;2.23;;
5042;SDS011;2540;50.928;6.856;2022-07-06T06:17:35;1.40;;;1.30;;
5042;SDS011;2540;50.928;6.856;2022-07-06T06:20:00;5.67;;;2.30;;
5042;SDS011;2540;50.928;6.856;2022-07-06T06:22:26;3.13;;;1.63;;
5042;SDS011;2540;50.928;6.856;2022-07-06T06:24:51;5.23;;;1.73;;
5042;SDS011;2540;50.928;6.856;2022-07-06T06:27:16;4.07;;;1.40;;
5042;SDS011;2540;50.928;6.856;2022-07-06T06:29:41;3.20;;;1.53;;
5042;SDS011;2540;50.928;6.856;2022-07-06T06:32:09;4.17;;;1.60;;
5042;SDS011;2540;50.928;6.856;2022-07-06T06:34:34;5.10;;;2.10;;
5042;SDS011;2540;50.928;6.856;2022-07-06T06:36:59;10.80;;;2.43;;
5042;SDS011;2540;50.928;6.856;2022-07-06T06:39:24;6.93;;;1.70;;
5042;SDS011;2540;50.928;6.856;2022-07-06T06:41:50;2.00;;;1.13;;
5042;SDS011;2540;50.928;6.856;2022-07-06T06:44:15;1.60;;;1.20;;
5042;SDS011;2540;50.928;6.856;2022-07-06T06:46:41;5.33;;;1.67;;
5042;SDS011;2540;50.928;6.856;2022-07-06T06:49:06;9.57;;;1.40;;
5042;SDS011;2540;50.928;6.856;2022-07-06T06:51:31;4.13;;;1.70;;
5042;SDS011;2540;50.928;6.856;2022-07-06T06:53:57;2.20;;;1.30;;
5042;SDS011;2540;50.928;6.856;2022-07-06T06:56:22;1.57;;;1.30;;
5042;SDS011;2540;50.928;6.856;2022-07-06T06:58:47;3.43;;;1.20;;
5042;SDS011;2540;50.928;6.856;2022-07-06T07:01:12;3.93;;;1.50;;
5042;SDS011;2540;50.928;6.856;2022-07-06T07:03:37;2.97;;;1.20;;
5042;SDS011;2540;50.928;6.856;2022-07-06T07:06:03;5.00;;;1.50;;
5042;SDS011;2540;50.928;6.856;2022-07-06T07:08:28;4.77;;;1.43;;
5042;SDS011;2540;50.928;6.856;2022-07-06T07:10:53;4.70;;;1.37;;
5042;SDS011;2540;50.928;6.856;2022-07-06T07:13:18;2.23;;;1.80;;
5042;SDS011;2540;50.928;6.856;2022-07-06T07:15:43;5.20;;;1.73;;
5042;SDS011;2540;50.928;6.856;2022-07-06T07:18:09;2.60;;;1.57;;
5042;SDS011;2540;50.928;6.856;2022-07-06T07:20:34;2.13;;;1.67;;
5042;SDS011;2540;50.928;6.856;2022-07-06T07:22:59;6.63;;;1.70;;
5042;SDS011;2540;50.928;6.856;2022-07-06T07:25:25;14.70;;;1.97;;
5042;SDS011;2540;50.928;6.856;2022-07-06T07:27:50;10.27;;;2.10;;
5042;SDS011;2540;50.928;6.856;2022-07-06T07:30:15;3.00;;;1.53;;
5042;SDS011;2540;50.928;6.856;2022-07-06T07:32:41;4.37;;;1.67;;
5042;SDS011;2540;50.928;6.856;2022-07-06T07:35:06;2.93;;;1.60;;
5042;SDS011;2540;50.928;6.856;2022-07-06T07:37:31;2.70;;;1.23;;
5042;SDS011;2540;50.928;6.856;2022-07-06T07:39:57;6.87;;;1.60;;
5042;SDS011;2540;50.928;6.856;2022-07-06T07:42:22;3.77;;;1.30;;
5042;SDS011;2540;50.928;6.856;2022-07-06T07:44:47;5.80;;;1.20;;
5042;SDS011;2540;50.928;6.856;2022-07-06T07:47:13;1.33;;;1.23;;
5042;SDS011;2540;50.928;6.856;2022-07-06T07:49:38;1.73;;;1.23;;
5042;SDS011;2540;50.928;6.856;2022-07-06T07:52:03;2.93;;;1.30;;
5042;SDS011;2540;50.928;6.856;2022-07-06T07:54:28;4.20;;;1.10;;
5042;SDS011;2540;50.928;6.856;2022-07-06T07:56:54;2.53;;;1.20;;
5042;SDS011;2540;50.928;6.856;2022-07-06T07:59:19;1.23;;;0.97;;
5042;SDS011;2540;50.928;6.856;2022-07-06T08:01:44;3.20;;;1.40;;
5042;SDS011;2540;50.928;6.856;2022-07-06T08:04:09;2.23;;;1.10;;
5042;SDS011;2540;50.928;6.856;2022-07-06T08:06:34;2.80;;;1.20;;
5042;SDS011;2540;50.928;6.856;2022-07-06T08:09:00;5.10;;;1.10;;
5042;SDS011;2540;50.928;6.856;2022-07-06T08:11:25;1.27;;;1.00;;
5042;SDS011;2540;50.928;6.856;2022-07-06T08:13:50;2.73;;;1.00;;
5042;SDS011;2540;50.928;6.856;2022-07-06T08:16:16;2.00;;;0.97;;
5042;SDS011;2540;50.928;6.856;2022-07-06T08:18:41;6.13;;;1.10;;
5042;SDS011;2540;50.928;6.856;2022-07-06T08:21:07;4.30;;;0.97;;
5042;SDS011;2540;50.928;6.856;2022-07-06T08:23:32;1.00;;;0.67;;
5042;SDS011;2540;50.928;6.856;2022-07-06T08:25:59;0.70;;;0.70;;
5042;SDS011;2540;50.928;6.856;2022-07-06T08:28:25;4.03;;;0.90;;
5042;SDS011;2540;50.928;6.856;2022-07-06T08:30:50;1.27;;;0.83;;
5042;SDS011;2540;50.928;6.856;2022-07-06T08:33:15;1.17;;;0.70;;
5042;SDS011;2540;50.928;6.856;2022-07-06T08:35:40;0.77;;;0.73;;
5042;SDS011;2540;50.928;6.856;2022-07-06T08:38:05;1.03;;;0.77;;
5042;SDS011;2540;50.928;6.856;2022-07-06T08:40:33;1.50;;;1.00;;
5042;SDS011;2540;50.928;6.856;2022-07-06T08:42:59;1.27;;;0.80;;
5042;SDS011;2540;50.928;6.856;2022-07-06T08:45:25;2.50;;;0.73;;
5042;SDS011;2540;50.928;6.856;2022-07-06T08:47:51;1.80;;;1.00;;
5042;SDS011;2540;50.928;6.856;2022-07-06T08:50:18;1.60;;;1.03;;
5042;SDS011;2540;50.928;6.856;2022-07-06T08:52:45;2.10;;;0.80;;
5042;SDS011;2540;50.928;6.856;2022-07-06T08:55:12;0.90;;;0.73;;
5042;SDS011;2540;50.928;6.856;2022-07-06T08:57:37;1.00;;;0.90;;
5042;SDS011;2540;50.928;6.856;2022-07-06T09:00:05;2.13;;;1.10;;
5042;SDS011;2540;50.928;6.856;2022-07-06T09:02:30;0.87;;;0.70;;
5042;SDS011;2540;50.928;6.856;2022-07-06T09:04:56;3.17;;;0.90;;
5042;SDS011;2540;50.928;6.856;2022-07-06T09:07:22;2.23;;;0.90;;
5042;SDS011;2540;50.928;6.856;2022-07-06T09:09:49;1.90;;;0.87;;
5042;SDS011;2540;50.928;6.856;2022-07-06T09:12:14;1.30;;;0.80;;
5042;SDS011;2540;50.928;6.856;2022-07-06T09:14:39;1.30;;;0.80;;
5042;SDS011;2540;50.928;6.856;2022-07-06T09:17:05;2.40;;;0.70;;
5042;SDS011;2540;50.928;6.856;2022-07-06T09:19:32;3.80;;;0.80;;
5042;SDS011;2540;50.928;6.856;2022-07-06T09:21:57;2.93;;;0.87;;
5042;SDS011;2540;50.928;6.856;2022-07-06T09:24:22;9.40;;;1.20;;
5042;SDS011;2540;50.928;6.856;2022-07-06T09:26:48;3.90;;;0.90;;
5042;SDS011;2540;50.928;6.856;2022-07-06T09:29:13;1.80;;;0.70;;
5042;SDS011;2540;50.928;6.856;2022-07-06T09:31:38;9.60;;;0.90;;
5042;SDS011;2540;50.928;6.856;2022-07-06T09:34:05;1.63;;;0.60;;
5042;SDS011;2540;50.928;6.856;2022-07-06T09:39:13;0.80;;;0.80;;
5042;SDS011;2540;50.928;6.856;2022-07-06T09:41:39;2.20;;;0.70;;
5042;SDS011;2540;50.928;6.856;2022-07-06T09:44:04;4.47;;;1.37;;
5042;SDS011;2540;50.928;6.856;2022-07-06T09:46:36;1.47;;;0.80;;
5042;SDS011;2540;50.928;6.856;2022-07-06T09:49:02;1.30;;;0.73;;
5042;SDS011;2540;50.928;6.856;2022-07-06T09:51:29;4.83;;;1.00;;
5042;SDS011;2540;50.928;6.856;2022-07-06T09:53:55;3.67;;;1.00;;
5042;SDS011;2540;50.928;6.856;2022-07-06T09:56:31;2.47;;;2.00;;
5042;SDS011;2540;50.928;6.856;2022-07-06T09:59:00;1.00;;;0.73;;
5042;SDS011;2540;50.928;6.856;2022-07-06T10:01:25;7.00;;;0.80;;
5042;SDS011;2540;50.928;6.856;2022-07-06T10:03:51;2.90;;;1.03;;
5042;SDS011;2540;50.928;6.856;2022-07-06T10:06:17;1.63;;;0.80;;
5042;SDS011;2540;50.928;6.856;2022-07-06T10:08:42;3.10;;;0.93;;
5042;SDS011;2540;50.928;6.856;2022-07-06T10:11:08;5.50;;;1.13;;
5042;SDS011;2540;50.928;6.856;2022-07-06T10:13:38;3.00;;;1.20;;
5042;SDS011;2540;50.928;6.856;2022-07-06T10:16:03;1.97;;;1.10;;
5042;SDS011;2540;50.928;6.856;2022-07-06T10:18:28;4.70;;;1.13;;
5042;SDS011;2540;50.928;6.856;2022-07-06T10:20:54;1.63;;;1.00;;
5042;SDS011;2540;50.928;6.856;2022-07-06T10:23:19;2.07;;;1.00;;
5042;SDS011;2540;50.928;6.856;2022-07-06T10:25:45;4.30;;;1.03;;
5042;SDS011;2540;50.928;6.856;2022-07-06T10:28:10;0.93;;;0.83;;
5042;SDS011;2540;50.928;6.856;2022-07-06T10:30:38;1.63;;;0.90;;
5042;SDS011;2540;50.928;6.856;2022-07-06T10:33:04;2.83;;;1.00;;
5042;SDS011;2540;50.928;6.856;2022-07-06T10:35:29;2.87;;;1.00;;
5042;SDS011;2540;50.928;6.856;2022-07-06T10:38:08;2.63;;;0.90;;
5042;SDS011;2540;50.928;6.856;2022-07-06T10:40:42;3.33;;;1.30;;
5042;SDS011;2540;50.928;6.856;2022-07-06T10:45:58;2.07;;;1.10;;
5042;SDS011;2540;50.928;6.856;2022-07-06T10:48:24;2.07;;;1.20;;
5042;SDS011;2540;50.928;6.856;2022-07-06T10:53:25;4.37;;;1.20;;
5042;SDS011;2540;50.928;6.856;2022-07-06T10:55:51;3.10;;;1.27;;
5042;SDS011;2540;50.928;6.856;2022-07-06T10:58:36;2.20;;;0.90;;
5042;SDS011;2540;50.928;6.856;2022-07-06T11:01:01;1.10;;;0.90;;
5042;SDS011;2540;50.928;6.856;2022-07-06T11:03:42;1.30;;;0.90;;
5042;SDS011;2540;50.928;6.856;2022-07-06T11:06:16;1.00;;;0.90;;
5042;SDS011;2540;50.928;6.856;2022-07-06T11:08:42;2.60;;;1.10;;
5042;SDS011;2540;50.928;6.856;2022-07-06T11:11:11;3.37;;;1.00;;
5042;SDS011;2540;50.928;6.856;2022-07-06T11:13:41;2.10;;;1.00;;
5042;SDS011;2540;50.928;6.856;2022-07-06T11:16:07;5.20;;;1.10;;
5042;SDS011;2540;50.928;6.856;2022-07-06T11:18:41;3.60;;;1.40;;
5042;SDS011;2540;50.928;6.856;2022-07-06T11:21:20;3.10;;;1.10;;
5042;SDS011;2540;50.928;6.856;2022-07-06T11:23:47;1.83;;;0.97;;
5042;SDS011;2540;50.928;6.856;2022-07-06T11:26:13;2.43;;;1.00;;
5042;SDS011;2540;50.928;6.856;2022-07-06T11:28:38;3.63;;;1.10;;
5042;SDS011;2540;50.928;6.856;2022-07-06T11:31:04;1.67;;;0.90;;
5042;SDS011;2540;50.928;6.856;2022-07-06T11:33:30;8.60;;;1.00;;
5042;SDS011;2540;50.928;6.856;2022-07-06T11:36:12;3.37;;;1.20;;
5042;SDS011;2540;50.928;6.856;2022-07-06T11:38:37;2.60;;;0.90;;
5042;SDS011;2540;50.928;6.856;2022-07-06T11:41:02;3.37;;;1.27;;
5042;SDS011;2540;50.928;6.856;2022-07-06T11:43:28;1.60;;;1.00;;
5042;SDS011;2540;50.928;6.856;2022-07-06T11:45:53;3.30;;;1.10;;
5042;SDS011;2540;50.928;6.856;2022-07-06T11:48:18;3.13;;;1.17;;
5042;SDS011;2540;50.928;6.856;2022-07-06T11:50:43;1.87;;;0.97;;
5042;SDS011;2540;50.928;6.856;2022-07-06T11:53:08;2.40;;;1.07;;
5042;SDS011;2540;50.928;6.856;2022-07-06T11:55:35;2.60;;;0.90;;
5042;SDS011;2540;50.928;6.856;2022-07-06T11:58:00;1.37;;;1.00;;
5042;SDS011;2540;50.928;6.856;2022-07-06T12:00:26;2.20;;;0.90;;
5042;SDS011;2540;50.928;6.856;2022-07-06T12:02:59;2.50;;;1.20;;
5042;SDS011;2540;50.928;6.856;2022-07-06T12:05:30;2.03;;;1.27;;
5042;SDS011;2540;50.928;6.856;2022-07-06T12:08:07;3.27;;;1.10;;
5042;SDS011;2540;50.928;6.856;2022-07-06T12:10:34;4.53;;;1.43;;
5042;SDS011;2540;50.928;6.856;2022-07-06T12:13:04;3.23;;;1.30;;
5042;SDS011;2540;50.928;6.856;2022-07-06T12:15:29;4.30;;;1.30;;
5042;SDS011;2540;50.928;6.856;2022-07-06T12:17:54;3.30;;;1.17;;
5042;SDS011;2540;50.928;6.856;2022-07-06T12:20:20;2.67;;;1.40;;
5042;SDS011;2540;50.928;6.856;2022-07-06T12:22:45;3.13;;;1.00;;
5042;SDS011;2540;50.928;6.856;2022-07-06T12:25:10;4.03;;;1.30;;
5042;SDS011;2540;50.928;6.856;2022-07-06T12:27:35;3.00;;;1.20;;
5042;SDS011;2540;50.928;6.856;2022-07-06T12:30:07;2.00;;;1.23;;
5042;SDS011;2540;50.928;6.856;2022-07-06T12:32:33;1.93;;;1.07;;
5042;SDS011;2540;50.928;6.856;2022-07-06T12:35:08;7.43;;;1.20;;
5042;SDS011;2540;50.928;6.856;2022-07-06T12:37:33;1.80;;;1.20;;
5042;SDS011;2540;50.928;6.856;2022-07-06T12:39:59;4.07;;;1.47;;
5042;SDS011;2540;50.928;6.856;2022-07-06T12:42:24;2.27;;;1.10;;
5042;SDS011;2540;50.928;6.856;2022-07-06T12:44:50;4.40;;;1.40;;
5042;SDS011;2540;50.928;6.856;2022-07-06T12:47:19;3.30;;;1.17;;
5042;SDS011;2540;50.928;6.856;2022-07-06T12:49:46;2.77;;;1.10;;
5042;SDS011;2540;50.928;6.856;2022-07-06T12:54:44;1.10;;;0.80;;
5042;SDS011;2540;50.928;6.856;2022-07-06T12:57:14;1.77;;;0.80;;
5042;SDS011;2540;50.928;6.856;2022-07-06T13:02:09;2.67;;;1.10;;
5042;SDS011;2540;50.928;6.856;2022-07-06T13:04:35;3.00;;;1.10;;
5042;SDS011;2540;50.928;6.856;2022-07-06T13:07:00;5.60;;;1.07;;
5042;SDS011;2540;50.928;6.856;2022-07-06T13:09:26;1.23;;;0.77;;
5042;SDS011;2540;50.928;6.856;2022-07-06T13:11:52;4.63;;;0.90;;
5042;SDS011;2540;50.928;6.856;2022-07-06T13:14:17;3.30;;;1.03;;
5042;SDS011;2540;50.928;6.856;2022-07-06T13:16:43;3.23;;;1.10;;
5042;SDS011;2540;50.928;6.856;2022-07-06T13:19:08;4.50;;;1.10;;
5042;SDS011;2540;50.928;6.856;2022-07-06T13:21:34;7.13;;;1.17;;
5042;SDS011;2540;50.928;6.856;2022-07-06T13:23:59;1.50;;;0.90;;
5042;SDS011;2540;50.928;6.856;2022-07-06T13:26:24;2.10;;;0.80;;
5042;SDS011;2540;50.928;6.856;2022-07-06T13:28:49;1.40;;;0.80;;
5042;SDS011;2540;50.928;6.856;2022-07-06T13:31:15;6.13;;;1.00;;
5042;SDS011;2540;50.928;6.856;2022-07-06T13:33:40;3.03;;;0.70;;
5042;SDS011;2540;50.928;6.856;2022-07-06T13:36:05;2.10;;;0.80;;
5042;SDS011;2540;50.928;6.856;2022-07-06T13:38:31;1.03;;;0.90;;
5042;SDS011;2540;50.928;6.856;2022-07-06T13:40:56;1.37;;;0.90;;
5042;SDS011;2540;50.928;6.856;2022-07-06T13:43:21;1.53;;;1.00;;
5042;SDS011;2540;50.928;6.856;2022-07-06T13:45:47;1.77;;;0.93;;
5042;SDS011;2540;50.928;6.856;2022-07-06T13:48:13;2.70;;;1.03;;
5042;SDS011;2540;50.928;6.856;2022-07-06T13:50:39;1.53;;;0.70;;
5042;SDS011;2540;50.928;6.856;2022-07-06T13:53:04;1.10;;;0.80;;
5042;SDS011;2540;50.928;6.856;2022-07-06T13:55:30;2.43;;;0.90;;
5042;SDS011;2540;50.928;6.856;2022-07-06T13:57:55;2.60;;;0.80;;
5042;SDS011;2540;50.928;6.856;2022-07-06T14:00:20;1.97;;;0.73;;
5042;SDS011;2540;50.928;6.856;2022-07-06T14:02:46;1.93;;;1.17;;
5042;SDS011;2540;50.928;6.856;2022-07-06T14:05:11;2.80;;;1.03;;
5042;SDS011;2540;50.928;6.856;2022-07-06T14:07:36;0.90;;;0.80;;
5042;SDS011;2540;50.928;6.856;2022-07-06T14:10:01;3.63;;;1.10;;
5042;SDS011;2540;50.928;6.856;2022-07-06T14:12:27;2.00;;;1.07;;
5042;SDS011;2540;50.928;6.856;2022-07-06T14:14:52;1.33;;;0.80;;
5042;SDS011;2540;50.928;6.856;2022-07-06T14:17:17;1.00;;;0.77;;
5042;SDS011;2540;50.928;6.856;2022-07-06T14:19:42;5.03;;;1.13;;
5042;SDS011;2540;50.928;6.856;2022-07-06T14:22:08;3.17;;;1.30;;
5042;SDS011;2540;50.928;6.856;2022-07-06T14:24:33;1.30;;;0.90;;
5042;SDS011;2540;50.928;6.856;2022-07-06T14:26:59;1.30;;;1.10;;
5042;SDS011;2540;50.928;6.856;2022-07-06T14:29:24;6.43;;;1.30;;
5042;SDS011;2540;50.928;6.856;2022-07-06T14:31:50;1.20;;;0.70;;
5042;SDS011;2540;50.928;6.856;2022-07-06T14:34:15;3.20;;;0.87;;
5042;SDS011;2540;50.928;6.856;2022-07-06T14:36:40;3.33;;;1.20;;
5042;SDS011;2540;50.928;6.856;2022-07-06T14:39:05;8.17;;;1.03;;
5042;SDS011;2540;50.928;6.856;2022-07-06T14:41:31;5.40;;;1.20;;
5042;SDS011;2540;50.928;6.856;2022-07-06T14:43:56;2.20;;;0.80;;
5042;SDS011;2540;50.928;6.856;2022-07-06T14:46:21;2.83;;;0.90;;
5042;SDS011;2540;50.928;6.856;2022-07-06T14:48:46;5.60;;;0.90;;
5042;SDS011;2540;50.928;6.856;2022-07-06T14:51:12;3.07;;;1.10;;
5042;SDS011;2540;50.928;6.856;2022-07-06T14:53:37;1.23;;;0.80;;
5042;SDS011;2540;50.928;6.856;2022-07-06T14:56:02;1.57;;;0.93;;
5042;SDS011;2540;50.928;6.856;2022-07-06T14:58:28;2.63;;;1.17;;
5042;SDS011;2540;50.928;6.856;2022-07-06T15:00:53;2.70;;;1.57;;
5042;SDS011;2540;50.928;6.856;2022-07-06T15:03:18;0.80;;;0.73;;
5042;SDS011;2540;50.928;6.856;2022-07-06T15:05:43;2.50;;;1.17;;
5042;SDS011;2540;50.928;6.856;2022-07-06T15:08:11;2.50;;;1.10;;
5042;SDS011;2540;50.928;6.856;2022-07-06T15:10:36;1.70;;;1.20;;
5042;SDS011;2540;50.928;6.856;2022-07-06T15:13:01;6.30;;;2.80;;
5042;SDS011;2540;50.928;6.856;2022-07-06T15:15:27;2.23;;;0.90;;
5042;SDS011;2540;50.928;6.856;2022-07-06T15:17:52;1.27;;;0.90;;
5042;SDS011;2540;50.928;6.856;2022-07-06T15:20:17;2.30;;;0.90;;